Wetterdaten: Woche 28.05.18 - 03.06.18 (KW22)
Datum Zeit Temperatur Luftfeuchte Luftdruck Niederschlag Windrichtung Sonnenschein Solar Wind
28.05.2018 00:00 17,3 C 84 % 1013,4 hPa 0,0 l/m SO 0,00 h 0 W/m 2,3 km/h (1 Bft)
28.05.2018 01:00 16,3 C 87 % 1013,3 hPa 0,0 l/m N 0,00 h 0 W/m 0,0 km/h (0 Bft)
28.05.2018 02:00 15,3 C 91 % 1013,1 hPa 0,0 l/m N 0,00 h 0 W/m 0,0 km/h (0 Bft)
28.05.2018 03:00 14,8 C 93 % 1013,2 hPa 0,0 l/m N 0,00 h 0 W/m 0,0 km/h (0 Bft)
28.05.2018 04:00 14,5 C 92 % 1013,4 hPa 0,0 l/m N 0,00 h 0 W/m 0,0 km/h (0 Bft)
28.05.2018 05:00 13,8 C 93 % 1013,5 hPa 0,0 l/m N 0,08 h 13 W/m 0,0 km/h (0 Bft)
28.05.2018 06:00 14,1 C 92 % 1013,7 hPa 0,0 l/m N 0,00 h 63 W/m 0,0 km/h (0 Bft)
28.05.2018 07:00 16,1 C 90 % 1013,9 hPa 0,0 l/m N 0,83 h 201 W/m 1,3 km/h (1 Bft)
28.05.2018 08:00 19,0 C 82 % 1013,9 hPa 0,0 l/m N 1,00 h 378 W/m 0,5 km/h (0 Bft)
28.05.2018 09:00 21,3 C 73 % 1013,8 hPa 0,0 l/m O-SO 0,83 h 455 W/m 2,1 km/h (1 Bft)
28.05.2018 10:00 22,9 C 68 % 1013,3 hPa 0,0 l/m O-SO 0,92 h 638 W/m 8,2 km/h (2 Bft)
28.05.2018 11:00 24,5 C 63 % 1013,1 hPa 0,0 l/m O 1,00 h 798 W/m 11,8 km/h (2 Bft)
28.05.2018 12:00 25,9 C 59 % 1013,1 hPa 0,0 l/m O-SO 1,00 h 813 W/m 12,4 km/h (3 Bft)
28.05.2018 13:00 27,1 C 54 % 1012,6 hPa 0,0 l/m O-SO 1,00 h 862 W/m 12,1 km/h (2 Bft)
28.05.2018 14:00 27,6 C 49 % 1012,0 hPa 0,0 l/m O-SO 1,00 h 757 W/m 13,4 km/h (3 Bft)
28.05.2018 15:00 28,4 C 43 % 1011,5 hPa 0,0 l/m O-NO 1,00 h 768 W/m 13,2 km/h (3 Bft)
28.05.2018 16:00 28,4 C 42 % 1010,9 hPa 0,0 l/m O 0,67 h 489 W/m 11,3 km/h (2 Bft)
28.05.2018 17:00 25,4 C 56 % 1010,8 hPa 0,0 l/m SW 0,08 h 136 W/m 9,1 km/h (2 Bft)
28.05.2018 18:00 24,3 C 64 % 1010,5 hPa 0,0 l/m SW 0,58 h 262 W/m 1,9 km/h (1 Bft)
28.05.2018 19:00 25,3 C 58 % 1010,6 hPa 0,0 l/m SO 0,50 h 140 W/m 5,5 km/h (1 Bft)
28.05.2018 20:00 22,9 C 60 % 1010,9 hPa 0,0 l/m O-SO 0,17 h 37 W/m 8,8 km/h (2 Bft)
28.05.2018 21:00 20,2 C 67 % 1011,3 hPa 0,0 l/m N 0,00 h 5 W/m 0,8 km/h (0 Bft)
28.05.2018 22:00 17,9 C 76 % 1011,6 hPa 0,0 l/m O-SO 0,00 h 0 W/m 1,5 km/h (1 Bft)
28.05.2018 23:00 16,8 C 76 % 1011,5 hPa 0,0 l/m N 0,00 h 0 W/m 0,0 km/h (0 Bft)
29.05.2018 00:00 15,7 C 81 % 1011,4 hPa 0,0 l/m N 0,00 h 0 W/m 0,1 km/h (0 Bft)
29.05.2018 01:00 15,0 C 84 % 1010,9 hPa 0,0 l/m O-SO 0,00 h 0 W/m 2,9 km/h (1 Bft)
29.05.2018 02:00 14,7 C 85 % 1010,6 hPa 0,0 l/m N 0,00 h 0 W/m 0,7 km/h (0 Bft)
29.05.2018 03:00 13,9 C 88 % 1010,3 hPa 0,0 l/m N 0,00 h 0 W/m 0,0 km/h (0 Bft)
29.05.2018 04:00 13,5 C 90 % 1010,5 hPa 0,0 l/m N 0,00 h 0 W/m 0,0 km/h (0 Bft)
29.05.2018 05:00 13,5 C 91 % 1010,6 hPa 0,0 l/m O-SO 0,25 h 17 W/m 0,9 km/h (0 Bft)
29.05.2018 06:00 13,7 C 91 % 1010,9 hPa 0,0 l/m O-SO 0,58 h 72 W/m 1,7 km/h (1 Bft)
29.05.2018 07:00 14,5 C 91 % 1011,0 hPa 0,0 l/m O-SO 0,00 h 89 W/m 2,9 km/h (1 Bft)
29.05.2018 08:00 15,7 C 89 % 1011,1 hPa 0,0 l/m SO 0,00 h 172 W/m 5,5 km/h (1 Bft)
29.05.2018 09:00 17,5 C 87 % 1011,4 hPa 0,0 l/m SW 0,25 h 316 W/m 14,0 km/h (3 Bft)
29.05.2018 10:00 20,0 C 80 % 1011,1 hPa 0,0 l/m W 0,83 h 427 W/m 11,0 km/h (2 Bft)
29.05.2018 11:00 21,4 C 77 % 1011,1 hPa 0,0 l/m W 0,67 h 510 W/m 9,8 km/h (2 Bft)
29.05.2018 12:00 22,7 C 74 % 1010,7 hPa 0,0 l/m W-SW 0,67 h 594 W/m 7,5 km/h (2 Bft)
29.05.2018 13:00 24,2 C 69 % 1010,6 hPa 0,0 l/m SW 0,92 h 775 W/m 13,7 km/h (3 Bft)
29.05.2018 14:00 24,1 C 69 % 1010,5 hPa 0,0 l/m W-SW 0,58 h 540 W/m 18,8 km/h (3 Bft)
29.05.2018 15:00 24,2 C 70 % 1010,3 hPa 0,0 l/m W-SW 0,83 h 726 W/m 19,2 km/h (3 Bft)
29.05.2018 16:00 24,7 C 66 % 1010,0 hPa 0,0 l/m W-SW 0,83 h 635 W/m 18,2 km/h (3 Bft)
29.05.2018 17:00 24,6 C 63 % 1009,8 hPa 0,0 l/m W 0,83 h 448 W/m 14,4 km/h (3 Bft)
29.05.2018 18:00 24,2 C 62 % 1009,7 hPa 0,0 l/m W-SW 1,00 h 337 W/m 15,0 km/h (3 Bft)
29.05.2018 19:00 23,0 C 64 % 1009,6 hPa 0,0 l/m W-SW 0,83 h 160 W/m 11,8 km/h (2 Bft)
29.05.2018 20:00 21,3 C 70 % 1010,0 hPa 0,0 l/m W-SW 0,08 h 39 W/m 4,8 km/h (1 Bft)
29.05.2018 21:00 20,1 C 75 % 1010,9 hPa 0,0 l/m W-SW 0,00 h 5 W/m 2,3 km/h (1 Bft)
29.05.2018 22:00 18,2 C 82 % 1011,0 hPa 0,0 l/m N 0,00 h 0 W/m 0,0 km/h (0 Bft)
29.05.2018 23:00 16,9 C 88 % 1011,5 hPa 0,0 l/m N 0,00 h 0 W/m 0,0 km/h (0 Bft)
30.05.2018 00:00 16,0 C 91 % 1011,7 hPa 0,0 l/m N 0,00 h 0 W/m 0,0 km/h (0 Bft)
30.05.2018 01:00 15,2 C 93 % 1011,9 hPa 0,0 l/m N 0,00 h 0 W/m 0,0 km/h (0 Bft)
30.05.2018 02:00 14,5 C 95 % 1011,8 hPa 0,0 l/m N 0,00 h 0 W/m 0,1 km/h (0 Bft)
30.05.2018 03:00 14,0 C 96 % 1011,7 hPa 0,0 l/m N 0,00 h 0 W/m 0,0 km/h (0 Bft)
30.05.2018 04:00 13,8 C 97 % 1011,8 hPa 0,0 l/m N 0,00 h 0 W/m 0,0 km/h (0 Bft)
30.05.2018 05:00 13,1 C 97 % 1012,0 hPa 0,0 l/m N 0,08 h 12 W/m 0,0 km/h (0 Bft)
30.05.2018 06:00 13,6 C 97 % 1012,1 hPa 0,0 l/m N 0,25 h 65 W/m 0,1 km/h (0 Bft)
30.05.2018 07:00 15,7 C 94 % 1012,2 hPa 0,0 l/m N 0,92 h 232 W/m 0,0 km/h (0 Bft)
30.05.2018 08:00 18,6 C 84 % 1012,5 hPa 0,0 l/m N 1,00 h 399 W/m 0,3 km/h (0 Bft)
30.05.2018 09:00 20,8 C 77 % 1012,3 hPa 0,0 l/m W-NW 0,83 h 426 W/m 4,8 km/h (1 Bft)
30.05.2018 10:00 22,7 C 70 % 1012,3 hPa 0,0 l/m NO 0,92 h 650 W/m 7,5 km/h (2 Bft)
30.05.2018 11:00 24,4 C 61 % 1012,1 hPa 0,0 l/m O-NO 0,92 h 763 W/m 15,6 km/h (3 Bft)
30.05.2018 12:00 25,4 C 57 % 1011,7 hPa 0,0 l/m O-SO 0,83 h 803 W/m 18,4 km/h (3 Bft)
30.05.2018 13:00 26,2 C 54 % 1011,4 hPa 0,0 l/m O 0,83 h 826 W/m 19,0 km/h (3 Bft)
30.05.2018 14:00 26,9 C 52 % 1011,0 hPa 0,0 l/m NO 0,83 h 816 W/m 20,6 km/h (4 Bft)
30.05.2018 15:00 27,3 C 49 % 1010,6 hPa 0,0 l/m O 0,92 h 736 W/m 20,6 km/h (4 Bft)
30.05.2018 16:00 27,6 C 48 % 1009,9 hPa 0,0 l/m O 0,92 h 611 W/m 21,0 km/h (4 Bft)
30.05.2018 17:00 27,1 C 49 % 1009,4 hPa 0,0 l/m O-SO 1,00 h 493 W/m 19,8 km/h (4 Bft)
30.05.2018 18:00 26,6 C 49 % 1009,2 hPa 0,0 l/m O-SO 1,00 h 340 W/m 19,8 km/h (4 Bft)
30.05.2018 19:00 24,9 C 53 % 1008,9 hPa 0,0 l/m O 0,00 h 86 W/m 14,4 km/h (3 Bft)
30.05.2018 20:00 23,5 C 57 % 1009,2 hPa 0,0 l/m O-NO 0,00 h 20 W/m 6,3 km/h (2 Bft)
30.05.2018 21:00 21,9 C 63 % 1010,3 hPa 0,8 l/m SW 0,00 h 0 W/m 17,3 km/h (3 Bft)
30.05.2018 22:00 16,4 C 89 % 1012,2 hPa 5,0 l/m O 0,00 h 0 W/m 7,3 km/h (2 Bft)
30.05.2018 23:00 15,4 C 94 % 1011,6 hPa 0,4 l/m O-SO 0,00 h 0 W/m 2,0 km/h (1 Bft)
31.05.2018 00:00 14,9 C 95 % 1011,3 hPa 0,0 l/m N 0,00 h 0 W/m 0,3 km/h (0 Bft)
31.05.2018 01:00 14,2 C 97 % 1011,2 hPa 0,0 l/m N 0,00 h 0 W/m 0,0 km/h (0 Bft)
31.05.2018 02:00 13,6 C 98 % 1011,0 hPa 0,0 l/m N 0,00 h 0 W/m 0,5 km/h (0 Bft)
31.05.2018 03:00 13,2 C 98 % 1010,9 hPa 0,0 l/m N 0,00 h 0 W/m 0,0 km/h (0 Bft)
31.05.2018 04:00 12,9 C 99 % 1010,9 hPa 0,2 l/m N 0,00 h 0 W/m 0,0 km/h (0 Bft)
31.05.2018 05:00 12,4 C 99 % 1011,0 hPa 0,0 l/m N 0,00 h 11 W/m 0,0 km/h (0 Bft)
31.05.2018 06:00 12,7 C 99 % 1011,0 hPa 0,0 l/m N 0,00 h 59 W/m 0,0 km/h (0 Bft)
31.05.2018 07:00 13,9 C 99 % 1011,3 hPa 0,0 l/m O-SO 0,75 h 194 W/m 1,1 km/h (0 Bft)
31.05.2018 08:00 16,2 C 97 % 1011,6 hPa 0,0 l/m SO 1,00 h 384 W/m 4,3 km/h (1 Bft)
31.05.2018 09:00 18,7 C 90 % 1011,6 hPa 0,0 l/m S-SO 0,75 h 417 W/m 4,3 km/h (1 Bft)
31.05.2018 10:00 20,4 C 85 % 1011,7 hPa 0,0 l/m S-SW 0,92 h 633 W/m 6,0 km/h (2 Bft)
31.05.2018 11:00 22,3 C 80 % 1011,6 hPa 0,0 l/m S-SW 1,00 h 816 W/m 4,7 km/h (1 Bft)
31.05.2018 12:00 23,9 C 72 % 1011,5 hPa 0,0 l/m SW 1,00 h 938 W/m 5,2 km/h (1 Bft)
31.05.2018 13:00 25,4 C 64 % 1011,2 hPa 0,0 l/m W 0,92 h 828 W/m 6,7 km/h (2 Bft)
31.05.2018 14:00 25,9 C 59 % 1010,6 hPa 0,0 l/m W-SW 0,58 h 608 W/m 6,1 km/h (2 Bft)
31.05.2018 15:00 26,2 C 58 % 1010,3 hPa 0,0 l/m W 0,42 h 509 W/m 6,2 km/h (2 Bft)
31.05.2018 16:00 25,4 C 61 % 1010,2 hPa 0,0 l/m NO 0,00 h 165 W/m 4,6 km/h (1 Bft)
31.05.2018 17:00 25,3 C 62 % 1009,8 hPa 0,0 l/m NO 0,42 h 283 W/m 5,6 km/h (1 Bft)
31.05.2018 18:00 23,8 C 71 % 1009,5 hPa 0,0 l/m O-SO 0,00 h 82 W/m 11,4 km/h (2 Bft)
31.05.2018 19:00 21,8 C 79 % 1010,0 hPa 0,0 l/m W-NW 0,00 h 30 W/m 4,5 km/h (1 Bft)
31.05.2018 20:00 20,7 C 81 % 1010,7 hPa 0,0 l/m N-NW 0,00 h 27 W/m 6,8 km/h (2 Bft)
31.05.2018 21:00 19,5 C 86 % 1010,7 hPa 0,0 l/m N 0,00 h 0 W/m 4,0 km/h (1 Bft)
31.05.2018 22:00 18,8 C 88 % 1011,4 hPa 0,0 l/m W-NW 0,00 h 0 W/m 1,5 km/h (1 Bft)
31.05.2018 23:00 17,3 C 90 % 1012,0 hPa 24,0 l/m W 0,00 h 0 W/m 23,1 km/h (4 Bft)
01.06.2018 00:00 15,3 C 96 % 1014,1 hPa 0,4 l/m NO 0,00 h 0 W/m 2,3 km/h (1 Bft)
01.06.2018 01:00 14,7 C 97 % 1014,5 hPa 1,6 l/m W 0,00 h 0 W/m 9,0 km/h (2 Bft)
01.06.2018 02:00 14,6 C 98 % 1014,9 hPa 0,0 l/m W 0,00 h 0 W/m 6,6 km/h (2 Bft)
01.06.2018 03:00 13,9 C 97 % 1014,9 hPa 0,0 l/m W 0,00 h 0 W/m 11,9 km/h (2 Bft)
01.06.2018 04:00 13,0 C 97 % 1015,0 hPa 0,2 l/m W-SW 0,00 h 0 W/m 8,2 km/h (2 Bft)
01.06.2018 05:00 12,7 C 98 % 1015,3 hPa 0,0 l/m W-SW 0,00 h 10 W/m 6,0 km/h (2 Bft)
01.06.2018 06:00 13,2 C 98 % 1015,4 hPa 0,0 l/m SW 0,33 h 73 W/m 14,5 km/h (3 Bft)
01.06.2018 07:00 13,7 C 98 % 1015,5 hPa 0,0 l/m SW 0,17 h 125 W/m 10,5 km/h (2 Bft)
01.06.2018 08:00 15,5 C 95 % 1015,9 hPa 0,0 l/m S-SW 0,92 h 410 W/m 9,8 km/h (2 Bft)
01.06.2018 09:00 17,4 C 87 % 1016,0 hPa 0,0 l/m W 0,58 h 380 W/m 14,9 km/h (3 Bft)
01.06.2018 10:00 18,5 C 81 % 1016,2 hPa 0,0 l/m W-SW 0,42 h 422 W/m 11,8 km/h (2 Bft)
01.06.2018 11:00 19,4 C 77 % 1016,4 hPa 0,0 l/m W-NW 0,42 h 480 W/m 10,2 km/h (2 Bft)
01.06.2018 12:00 20,5 C 72 % 1016,3 hPa 0,0 l/m W-NW 0,75 h 641 W/m 10,3 km/h (2 Bft)
01.06.2018 13:00 22,1 C 65 % 1015,7 hPa 0,0 l/m SW 0,83 h 837 W/m 9,8 km/h (2 Bft)
01.06.2018 14:00 22,7 C 61 % 1015,3 hPa 0,0 l/m W-SW 0,58 h 740 W/m 9,4 km/h (2 Bft)
01.06.2018 15:00 22,6 C 60 % 1014,9 hPa 0,0 l/m W 0,42 h 525 W/m 6,6 km/h (2 Bft)
01.06.2018 16:00 23,0 C 58 % 1014,7 hPa 0,0 l/m W 0,50 h 437 W/m 4,9 km/h (1 Bft)
01.06.2018 17:00 23,1 C 59 % 1014,5 hPa 0,0 l/m W 0,42 h 375 W/m 4,8 km/h (1 Bft)
01.06.2018 18:00 22,5 C 61 % 1014,4 hPa 0,0 l/m NW 0,33 h 238 W/m 4,0 km/h (1 Bft)
01.06.2018 19:00 20,5 C 71 % 1014,8 hPa 1,0 l/m W-NW 0,33 h 90 W/m 7,9 km/h (2 Bft)
01.06.2018 20:00 18,2 C 91 % 1015,3 hPa 0,8 l/m N 0,67 h 82 W/m 0,0 km/h (0 Bft)
01.06.2018 21:00 16,8 C 95 % 1015,8 hPa 0,0 l/m N 0,08 h 7 W/m 0,1 km/h (0 Bft)
01.06.2018 22:00 16,1 C 96 % 1016,6 hPa 6,0 l/m W 0,00 h 0 W/m 5,5 km/h (1 Bft)
01.06.2018 23:00 15,5 C 97 % 1017,1 hPa 0,2 l/m N 0,00 h 0 W/m 0,4 km/h (0 Bft)
02.06.2018 00:00 15,0 C 98 % 1017,0 hPa 0,2 l/m N 0,00 h 0 W/m 0,0 km/h (0 Bft)
02.06.2018 01:00 14,4 C 98 % 1016,8 hPa 0,2 l/m N 0,00 h 0 W/m 0,0 km/h (0 Bft)
02.06.2018 02:00 13,5 C 98 % 1016,7 hPa 0,0 l/m N 0,00 h 0 W/m 0,0 km/h (0 Bft)
02.06.2018 03:00 13,2 C 99 % 1016,6 hPa 0,0 l/m N 0,00 h 0 W/m 0,0 km/h (0 Bft)
02.06.2018 04:00 13,0 C 99 % 1016,5 hPa 0,0 l/m N 0,00 h 0 W/m 0,0 km/h (0 Bft)
02.06.2018 05:00 12,6 C 99 % 1016,6 hPa 0,0 l/m N 0,00 h 12 W/m 0,0 km/h (0 Bft)
02.06.2018 06:00 12,4 C 100 % 1016,9 hPa 0,2 l/m N 0,08 h 60 W/m 0,0 km/h (0 Bft)
02.06.2018 07:00 13,5 C 100 % 1017,2 hPa 0,0 l/m N 0,75 h 203 W/m 0,0 km/h (0 Bft)
02.06.2018 08:00 15,6 C 99 % 1017,1 hPa 0,0 l/m W 1,00 h 397 W/m 0,7 km/h (0 Bft)
02.06.2018 09:00 18,2 C 87 % 1016,9 hPa 0,0 l/m W 0,83 h 450 W/m 4,4 km/h (1 Bft)
02.06.2018 10:00 19,7 C 77 % 1016,9 hPa 0,0 l/m W 0,75 h 608 W/m 6,3 km/h (2 Bft)
02.06.2018 11:00 20,2 C 76 % 1016,8 hPa 0,0 l/m W 0,58 h 692 W/m 5,9 km/h (2 Bft)
02.06.2018 12:00 21,5 C 69 % 1016,5 hPa 0,0 l/m W 0,67 h 734 W/m 8,2 km/h (2 Bft)
02.06.2018 13:00 22,7 C 64 % 1016,0 hPa 0,0 l/m S-SW 0,83 h 914 W/m 7,5 km/h (2 Bft)
02.06.2018 14:00 22,2 C 64 % 1015,5 hPa 0,0 l/m SW 0,17 h 433 W/m 4,9 km/h (1 Bft)
02.06.2018 15:00 24,3 C 58 % 1014,9 hPa 0,0 l/m O-NO 0,92 h 829 W/m 10,6 km/h (2 Bft)
02.06.2018 16:00 23,8 C 59 % 1014,5 hPa 0,0 l/m O 0,58 h 404 W/m 9,3 km/h (2 Bft)
02.06.2018 17:00 24,6 C 56 % 1014,2 hPa 0,0 l/m N-NO 1,00 h 612 W/m 9,9 km/h (2 Bft)
02.06.2018 18:00 24,2 C 58 % 1014,1 hPa 0,0 l/m N-NO 1,00 h 359 W/m 11,0 km/h (2 Bft)
02.06.2018 19:00 23,1 C 61 % 1014,2 hPa 0,0 l/m N-NO 0,92 h 172 W/m 11,0 km/h (2 Bft)
02.06.2018 20:00 21,4 C 68 % 1014,4 hPa 0,0 l/m NO 0,00 h 36 W/m 7,5 km/h (2 Bft)
02.06.2018 21:00 18,9 C 80 % 1014,9 hPa 0,0 l/m N 0,08 h 7 W/m 0,3 km/h (0 Bft)
02.06.2018 22:00 17,3 C 86 % 1015,3 hPa 0,0 l/m N 0,00 h 0 W/m 0,5 km/h (0 Bft)
02.06.2018 23:00 16,5 C 88 % 1015,6 hPa 0,0 l/m N 0,00 h 0 W/m 0,4 km/h (0 Bft)
03.06.2018 00:00 16,1 C 89 % 1015,6 hPa 0,0 l/m N 0,00 h 0 W/m 0,4 km/h (0 Bft)
03.06.2018 01:00 15,6 C 91 % 1015,5 hPa 0,0 l/m N 0,00 h 0 W/m 0,1 km/h (0 Bft)
03.06.2018 02:00 15,1 C 91 % 1015,5 hPa 0,0 l/m N 0,00 h 0 W/m 0,9 km/h (0 Bft)
03.06.2018 03:00 14,5 C 93 % 1015,3 hPa 0,0 l/m N 0,00 h 0 W/m 0,1 km/h (0 Bft)
03.06.2018 04:00 14,1 C 94 % 1014,8 hPa 0,0 l/m N 0,00 h 0 W/m 0,0 km/h (0 Bft)
03.06.2018 05:00 13,7 C 95 % 1014,8 hPa 0,0 l/m N 0,08 h 12 W/m 0,7 km/h (0 Bft)
03.06.2018 06:00 14,3 C 95 % 1014,8 hPa 0,0 l/m NO 0,25 h 66 W/m 2,3 km/h (1 Bft)
03.06.2018 07:00 16,1 C 89 % 1014,9 hPa 0,0 l/m NO 0,83 h 235 W/m 5,6 km/h (1 Bft)
03.06.2018 08:00 18,4 C 81 % 1015,2 hPa 0,0 l/m NO 1,00 h 407 W/m 6,2 km/h (2 Bft)
03.06.2018 09:00 20,5 C 74 % 1014,9 hPa 0,0 l/m NO 0,75 h 430 W/m 10,8 km/h (2 Bft)
03.06.2018 10:00 22,7 C 67 % 1014,5 hPa 0,0 l/m O-NO 0,92 h 650 W/m 14,1 km/h (3 Bft)
03.06.2018 11:00 24,0 C 62 % 1014,2 hPa 0,0 l/m O-NO 1,00 h 819 W/m 16,5 km/h (3 Bft)
03.06.2018 12:00 25,1 C 56 % 1014,1 hPa 0,0 l/m O 1,00 h 857 W/m 16,4 km/h (3 Bft)
03.06.2018 13:00 25,4 C 51 % 1013,7 hPa 0,0 l/m O 0,92 h 672 W/m 15,6 km/h (3 Bft)
03.06.2018 14:00 25,5 C 51 % 1013,0 hPa 0,0 l/m O 1,00 h 638 W/m 15,4 km/h (3 Bft)
03.06.2018 15:00 25,9 C 50 % 1012,4 hPa 0,0 l/m O-NO 0,75 h 572 W/m 14,9 km/h (3 Bft)
03.06.2018 16:00 25,6 C 53 % 1011,9 hPa 0,0 l/m O 0,67 h 478 W/m 13,6 km/h (3 Bft)
03.06.2018 17:00 26,6 C 50 % 1011,2 hPa 0,0 l/m O 1,00 h 546 W/m 15,6 km/h (3 Bft)
03.06.2018 18:00 26,0 C 50 % 1010,7 hPa 0,0 l/m O-NO 1,00 h 356 W/m 17,2 km/h (3 Bft)
03.06.2018 19:00 24,8 C 52 % 1010,4 hPa 0,0 l/m O-NO 0,42 h 135 W/m 14,1 km/h (3 Bft)
03.06.2018 20:00 22,9 C 60 % 1010,1 hPa 0,0 l/m O-NO 0,00 h 39 W/m 5,9 km/h (2 Bft)
03.06.2018 21:00 20,4 C 71 % 1010,0 hPa 0,0 l/m N 0,08 h 7 W/m 0,3 km/h (0 Bft)
03.06.2018 22:00 18,3 C 79 % 1010,2 hPa 0,0 l/m N 0,00 h 0 W/m 0,3 km/h (0 Bft)
03.06.2018 23:00 17,4 C 82 % 1010,1 hPa 0,0 l/m N 0,00 h 0 W/m 0,4 km/h (0 Bft)
Min-Datum _ 02.06.18 28.05.18 30.05.18 - - - - 28.05.18
_ Min-Zeit 06:20 15:45 19:40 - - - - 00:20
Minimum _ 12,2 C 40 % 1008,7 hPa - - - - 0,0 km/h (0 Bft)
Max-Datum _ 28.05.18 02.06.18 02.06.18 31.05.18 - 28.05.18 01.06.18 30.05.18
_ Max-Zeit 16:20 06:30 08:00 23:30 - 05:45 13:40 21:40
Maximum _ 28,9 C 100 % 1017,3 hPa 24,0 l/m - 0,08 h 1199 W/m 59,5 km/h
O-NO (7 Bft)
Durchschnitt _ 19,4 C 78 % 1012,8 hPa #41,2 l/m W-SW #68:25 h 390 W/m 6,4 km/h (2 Bft)